Time;durP1;ratioP1;P1;durP2;ratioP2;P2;SDS_P1;SDS_P2;PMS_P1;PMS_P2;Temp;Humidity;BMP_temperature;BMP_pressure;BME280_temperature;BME280_humidity;BME280_pressure;Samples;Min_cycle;Max_cycle;Signal;HPM_P1;HPM_P2
2022/04/30 00:00:59;;;;;;;11.77;10.67;;;13.60;96.80;;;;;;4883515;29;20487;-80
2022/04/30 00:03:27;;;;;;;12.20;11.20;;;13.60;97.00;;;;;;4893040;29;20442;-80
2022/04/30 00:05:54;;;;;;;11.53;10.47;;;13.60;97.10;;;;;;4881124;29;20449;-81
2022/04/30 00:08:21;;;;;;;13.20;12.20;;;13.60;97.30;;;;;;4871087;29;20449;-81
2022/04/30 00:10:50;;;;;;;12.80;11.53;;;13.50;97.40;;;;;;4886945;29;20504;-80
2022/04/30 00:13:17;;;;;;;11.77;10.70;;;13.50;97.50;;;;;;4885277;29;20869;-80
2022/04/30 00:15:44;;;;;;;11.90;11.00;;;13.50;97.60;;;;;;4884824;29;20452;-80
2022/04/30 00:18:10;;;;;;;11.60;10.70;;;13.50;97.70;;;;;;4883995;29;20973;-81
2022/04/30 00:20:38;;;;;;;12.53;11.33;;;13.50;97.70;;;;;;4884697;29;20449;-80
2022/04/30 00:23:05;;;;;;;9.90;9.10;;;13.50;97.90;;;;;;4884661;29;20528;-80
2022/04/30 00:25:32;;;;;;;13.20;11.60;;;13.40;98.20;;;;;;4883878;29;20464;-80
2022/04/30 00:28:00;;;;;;;11.77;10.87;;;13.40;98.50;;;;;;4884739;29;20463;-80
2022/04/30 00:30:27;;;;;;;12.60;11.60;;;13.20;98.80;;;;;;4884745;29;20493;-81
2022/04/30 00:32:54;;;;;;;12.30;11.40;;;13.00;99.40;;;;;;4884776;29;20467;-80
2022/04/30 00:35:21;;;;;;;14.67;13.43;;;12.70;99.90;;;;;;4884970;29;20467;-80
2022/04/30 00:37:48;;;;;;;13.53;12.33;;;12.30;99.90;;;;;;4886766;29;20460;-80
2022/04/30 00:40:15;;;;;;;11.60;10.70;;;11.90;99.90;;;;;;4886176;29;20462;-79
2022/04/30 00:42:42;;;;;;;13.23;11.23;;;11.90;99.90;;;;;;4885446;29;20483;-80
2022/04/30 00:45:11;;;;;;;11.80;11.00;;;11.90;99.90;;;;;;4885376;29;20538;-80
2022/04/30 00:47:38;;;;;;;10.43;9.67;;;11.90;99.90;;;;;;4885788;29;20463;-80
2022/04/30 00:50:05;;;;;;;11.27;10.30;;;11.90;99.90;;;;;;4884100;29;20978;-80
2022/04/30 00:52:34;;;;;;;10.67;9.73;;;11.80;99.90;;;;;;4885005;29;20468;-80
2022/04/30 00:55:03;;;;;;;10.03;9.27;;;11.80;99.90;;;;;;4884514;29;20466;-80
2022/04/30 00:57:32;;;;;;;9.53;8.63;;;11.80;99.90;;;;;;4884757;29;20840;-80
2022/04/30 01:00:01;;;;;;;9.40;8.70;;;11.90;99.90;;;;;;4885604;29;20467;-80
2022/04/30 01:02:30;;;;;;;10.20;9.30;;;11.90;99.90;;;;;;4885569;29;20483;-80
2022/04/30 01:04:58;;;;;;;11.30;10.23;;;11.90;99.90;;;;;;4887978;29;20468;-80
2022/04/30 01:07:26;;;;;;;10.50;9.70;;;11.90;99.90;;;;;;4888979;29;20497;-79
2022/04/30 01:09:55;;;;;;;11.13;10.13;;;11.80;99.90;;;;;;4888231;29;20506;-80
2022/04/30 01:12:23;;;;;;;9.30;8.50;;;11.80;99.90;;;;;;4868448;29;20545;-80
2022/04/30 01:14:52;;;;;;;11.40;10.37;;;11.80;99.90;;;;;;4876631;29;20990;-81
2022/04/30 01:17:19;;;;;;;11.50;10.40;;;11.80;99.90;;;;;;4887236;29;20458;-80
2022/04/30 01:19:48;;;;;;;11.63;10.53;;;11.80;99.90;;;;;;4887545;29;20460;-80
2022/04/30 01:22:25;;;;;;;12.00;10.90;;;11.80;99.90;;;;;;4887446;29;20852;-80
2022/04/30 01:24:56;;;;;;;12.80;11.70;;;11.60;99.90;;;;;;4886238;29;20460;-80
2022/04/30 01:27:25;;;;;;;12.50;11.17;;;11.60;99.90;;;;;;4886932;29;20456;-80
2022/04/30 01:29:53;;;;;;;17.80;12.27;;;11.50;99.90;;;;;;4885939;29;20471;-80
2022/04/30 01:37:57;;;;;;;17.27;13.87;;;11.40;99.90;;;;;;4887056;29;20455;-80
2022/04/30 01:40:25;;;;;;;16.00;13.67;;;11.50;99.90;;;;;;4886833;29;20459;-80
2022/04/30 01:42:55;;;;;;;21.10;16.37;;;11.40;99.90;;;;;;4961601;23;21088;-85
2022/04/30 01:45:22;;;;;;;21.10;17.37;;;11.40;99.90;;;;;;4905034;29;20497;-86
2022/04/30 01:47:49;;;;;;;20.70;18.40;;;11.30;99.90;;;;;;4903564;29;20971;-85
2022/04/30 01:50:16;;;;;;;21.87;17.17;;;11.30;99.90;;;;;;4904560;29;21014;-85
2022/04/30 01:52:43;;;;;;;23.07;17.13;;;11.20;99.90;;;;;;4900852;29;20505;-85
2022/04/30 01:55:11;;;;;;;21.50;17.20;;;11.20;99.90;;;;;;4885817;29;20465;-85
2022/04/30 01:57:41;;;;;;;22.00;18.47;;;11.10;99.90;;;;;;4904912;29;20642;-86
2022/04/30 02:00:09;;;;;;;23.00;18.30;;;11.10;99.90;;;;;;4905073;29;20472;-83
2022/04/30 02:02:37;;;;;;;22.70;18.47;;;11.10;99.90;;;;;;4887507;29;21013;-85
2022/04/30 02:05:07;;;;;;;20.23;17.93;;;11.10;99.90;;;;;;4886015;29;20892;-86
2022/04/30 02:07:39;;;;;;;20.27;17.30;;;11.10;99.90;;;;;;4902890;29;20469;-85
2022/04/30 02:10:07;;;;;;;20.33;17.93;;;11.00;99.90;;;;;;4897048;29;20463;-83
2022/04/30 02:12:35;;;;;;;24.27;18.57;;;11.00;99.90;;;;;;4885577;29;20483;-85
2022/04/30 02:15:05;;;;;;;21.47;16.83;;;11.00;99.90;;;;;;4892790;29;20466;-86
2022/04/30 02:17:35;;;;;;;21.67;17.77;;;11.10;99.90;;;;;;4904871;29;20459;-85
2022/04/30 02:20:22;;;;;;;20.57;17.37;;;11.10;99.90;;;;;;4898558;29;20483;-83
2022/04/30 02:22:50;;;;;;;22.80;19.30;;;11.10;99.90;;;;;;4886304;29;20494;-85
2022/04/30 02:25:19;;;;;;;18.50;16.03;;;11.10;99.90;;;;;;4892645;29;20467;-85
2022/04/30 02:27:47;;;;;;;20.80;16.60;;;11.00;99.90;;;;;;4901926;29;20462;-84
2022/04/30 02:30:18;;;;;;;24.30;19.07;;;11.00;99.90;;;;;;4905544;29;20485;-85
2022/04/30 02:32:46;;;;;;;24.60;18.60;;;11.00;99.90;;;;;;4899824;29;20996;-85
2022/04/30 02:35:15;;;;;;;18.50;16.50;;;10.90;99.90;;;;;;4887121;29;20463;-85
2022/04/30 02:37:44;;;;;;;18.73;16.10;;;10.90;99.90;;;;;;4891151;29;20526;-85
2022/04/30 02:40:12;;;;;;;21.00;18.20;;;11.00;99.90;;;;;;4905381;29;20497;-85
2022/04/30 02:42:39;;;;;;;25.10;18.90;;;11.00;99.90;;;;;;4902745;29;21018;-86
2022/04/30 02:45:09;;;;;;;19.83;17.27;;;10.90;99.90;;;;;;4887294;29;20463;-84
2022/04/30 02:47:38;;;;;;;17.40;15.43;;;10.80;99.90;;;;;;4885920;29;20474;-86
2022/04/30 02:50:07;;;;;;;23.30;16.00;;;10.80;99.90;;;;;;4904612;29;20491;-80
2022/04/30 02:52:34;;;;;;;20.17;16.63;;;10.80;99.90;;;;;;4903137;29;20866;-86
2022/04/30 02:55:00;;;;;;;29.67;18.57;;;10.80;99.90;;;;;;4885696;29;20464;-85
2022/04/30 02:57:38;;;;;;;17.43;15.60;;;10.70;99.90;;;;;;4885395;29;20466;-86
2022/04/30 03:00:04;;;;;;;20.30;16.90;;;10.70;99.90;;;;;;4885384;29;20462;-83
2022/04/30 03:02:31;;;;;;;21.67;15.73;;;10.70;99.90;;;;;;4899721;29;20559;-85
2022/04/30 03:04:59;;;;;;;19.87;17.80;;;10.70;99.90;;;;;;4885562;29;20467;-86
2022/04/30 03:07:25;;;;;;;19.60;16.90;;;10.80;99.90;;;;;;4888865;29;20516;-85
2022/04/30 03:09:52;;;;;;;19.43;16.43;;;10.70;99.90;;;;;;4903706;29;20481;-86
2022/04/30 03:12:19;;;;;;;20.23;17.00;;;10.70;99.90;;;;;;4901080;29;20506;-84
2022/04/30 03:14:45;;;;;;;22.73;17.50;;;10.70;99.90;;;;;;4885133;29;20945;-85
2022/04/30 03:22:42;;;;;;;19.87;17.17;;;10.80;99.90;;;;;;4866926;29;20442;-85
2022/04/30 03:25:09;;;;;;;20.03;17.77;;;10.70;99.90;;;;;;4866729;29;20463;-82
2022/04/30 03:27:36;;;;;;;22.53;18.33;;;10.70;99.90;;;;;;4903692;29;20461;-86
2022/04/30 03:30:03;;;;;;;20.63;18.40;;;10.70;99.90;;;;;;4904158;29;20849;-85
2022/04/30 03:32:30;;;;;;;20.77;17.17;;;10.70;99.90;;;;;;4885535;29;20506;-85
2022/04/30 03:34:57;;;;;;;24.03;17.40;;;10.70;99.90;;;;;;4898081;29;20555;-83
2022/04/30 03:37:24;;;;;;;20.47;18.20;;;10.60;99.90;;;;;;4903778;29;20466;-85
2022/04/30 03:39:52;;;;;;;22.00;18.30;;;10.70;99.90;;;;;;4891843;29;20470;-85
2022/04/30 03:42:19;;;;;;;33.70;21.87;;;10.60;99.90;;;;;;4884836;29;20565;-86
2022/04/30 03:44:47;;;;;;;28.55;20.05;;;10.60;99.90;;;;;;4895022;29;20529;-84
2022/04/30 03:47:14;;;;;;;21.70;18.70;;;10.60;99.90;;;;;;4903844;29;20245;-85
2022/04/30 03:49:41;;;;;;;24.07;18.60;;;10.60;99.90;;;;;;4894167;29;20467;-85
2022/04/30 03:52:10;;;;;;;26.27;19.43;;;10.60;99.90;;;;;;4884605;29;20497;-84
2022/04/30 03:54:37;;;;;;;30.13;21.97;;;10.60;99.90;;;;;;4892719;29;20462;-86
2022/04/30 03:57:05;;;;;;;26.50;21.00;;;10.60;99.90;;;;;;4903676;29;20981;-86
2022/04/30 03:59:32;;;;;;;24.70;20.63;;;10.60;99.90;;;;;;4885861;29;20466;-84
2022/04/30 04:01:59;;;;;;;35.03;23.27;;;10.60;99.90;;;;;;4883977;29;20466;-85
2022/04/30 04:04:26;;;;;;;22.97;20.10;;;10.60;99.90;;;;;;4901038;29;20478;-82
2022/04/30 04:06:53;;;;;;;26.37;22.57;;;10.50;99.90;;;;;;4888385;29;20546;-86
2022/04/30 04:09:20;;;;;;;27.40;22.73;;;10.50;99.90;;;;;;4884390;29;20463;-83
2022/04/30 04:11:47;;;;;;;31.70;25.60;;;10.40;99.90;;;;;;4896747;29;20509;-85
2022/04/30 04:19:43;;;;;;;27.37;23.40;;;10.30;99.90;;;;;;4891175;29;20539;-86
2022/04/30 04:22:10;;;;;;;27.73;23.27;;;10.40;99.90;;;;;;4884140;29;20479;-85
2022/04/30 04:27:21;;;;;;;30.50;22.20;;;10.30;99.90;;;;;;4902938;29;20469;-85
2022/04/30 04:29:50;;;;;;;31.00;23.30;;;10.20;99.90;;;;;;4903276;29;20466;-86
2022/04/30 04:32:16;;;;;;;31.60;25.67;;;10.30;99.90;;;;;;4902195;29;20552;-86
2022/04/30 04:34:43;;;;;;;30.17;23.40;;;10.20;99.90;;;;;;4903744;29;20453;-84
2022/04/30 04:37:10;;;;;;;32.30;24.73;;;10.20;99.90;;;;;;4888268;29;20467;-86
2022/04/30 04:39:37;;;;;;;26.57;23.87;;;10.30;99.90;;;;;;4886697;29;20467;-86
2022/04/30 04:42:06;;;;;;;33.67;25.00;;;10.30;99.90;;;;;;4902972;29;21010;-86
2022/04/30 04:44:33;;;;;;;30.97;23.20;;;10.30;99.90;;;;;;4903754;29;20585;-82
2022/04/30 04:47:01;;;;;;;35.58;26.55;;;10.20;99.90;;;;;;4899848;29;20519;-85
2022/04/30 04:49:28;;;;;;;26.37;22.83;;;10.30;99.90;;;;;;4885585;29;20258;-85
2022/04/30 04:51:56;;;;;;;31.97;23.90;;;10.30;99.90;;;;;;4890023;29;20494;-84
2022/04/30 04:54:22;;;;;;;38.30;29.00;;;10.30;99.90;;;;;;4905235;29;20465;-85
2022/04/30 04:56:49;;;;;;;37.37;27.27;;;10.30;99.90;;;;;;4904301;29;20463;-85
2022/04/30 04:59:16;;;;;;;43.40;28.70;;;10.30;99.90;;;;;;4904608;29;20450;-85
2022/04/30 05:01:43;;;;;;;34.57;26.77;;;10.20;99.90;;;;;;4891533;29;20514;-84
2022/04/30 05:04:11;;;;;;;37.40;28.23;;;10.20;99.90;;;;;;4886628;29;20459;-83
2022/04/30 05:06:37;;;;;;;34.70;26.47;;;10.30;99.90;;;;;;4887499;29;20468;-85
2022/04/30 05:09:04;;;;;;;30.97;26.37;;;10.40;99.90;;;;;;4888271;29;20459;-85
2022/04/30 05:11:31;;;;;;;40.10;27.87;;;10.50;99.90;;;;;;4888156;29;20863;-85
2022/04/30 05:13:58;;;;;;;37.23;27.07;;;10.50;99.90;;;;;;4888002;29;20452;-83
2022/04/30 05:16:24;;;;;;;31.57;28.23;;;10.40;99.90;;;;;;4901469;29;20496;-85
2022/04/30 05:18:51;;;;;;;32.40;26.30;;;10.30;99.90;;;;;;4898531;29;20488;-85
2022/04/30 05:21:19;;;;;;;32.10;28.00;;;10.30;99.90;;;;;;4886458;29;20462;-84
2022/04/30 05:23:46;;;;;;;35.17;28.23;;;10.40;99.90;;;;;;4896845;29;22105;-84
2022/04/30 05:26:13;;;;;;;42.20;29.13;;;10.40;99.90;;;;;;4906370;29;20469;-85
2022/04/30 05:28:39;;;;;;;43.67;29.63;;;10.30;99.90;;;;;;4905866;29;20535;-85
2022/04/30 05:31:06;;;;;;;37.80;30.03;;;10.20;99.90;;;;;;4905508;29;20952;-83
2022/04/30 05:33:34;;;;;;;39.87;29.60;;;10.20;99.90;;;;;;4898693;29;20807;-85
2022/04/30 05:36:01;;;;;;;42.37;29.23;;;10.20;99.90;;;;;;4887053;29;20466;-84
2022/04/30 05:38:30;;;;;;;43.13;32.70;;;10.20;99.90;;;;;;4887336;29;20489;-85
2022/04/30 05:40:56;;;;;;;41.83;33.40;;;10.10;99.90;;;;;;4887351;29;20469;-85
2022/04/30 05:43:23;;;;;;;39.07;32.30;;;10.00;99.90;;;;;;4888912;29;20511;-86
2022/04/30 05:45:50;;;;;;;39.60;30.83;;;10.10;99.90;;;;;;4896145;29;20463;-86
2022/04/30 05:48:17;;;;;;;40.30;28.60;;;10.10;99.90;;;;;;4908502;29;20461;-84
2022/04/30 05:50:43;;;;;;;41.47;31.80;;;10.00;99.90;;;;;;4903144;29;20964;-86
2022/04/30 05:53:10;;;;;;;38.57;27.40;;;9.90;99.90;;;;;;4889400;29;20502;-86
2022/04/30 05:55:39;;;;;;;45.20;33.23;;;9.90;99.90;;;;;;4890440;29;20470;-85
2022/04/30 05:58:06;;;;;;;39.87;30.57;;;9.90;99.90;;;;;;4896585;29;20903;-86
2022/04/30 06:00:33;;;;;;;40.77;33.77;;;9.90;99.90;;;;;;4907763;29;20471;-85
2022/04/30 06:03:00;;;;;;;42.38;31.27;;;10.00;99.90;;;;;;4907857;29;20482;-86
2022/04/30 06:05:26;;;;;;;46.87;32.90;;;9.90;99.90;;;;;;4908250;29;20220;-86
2022/04/30 06:07:53;;;;;;;42.00;30.17;;;10.00;99.90;;;;;;4902223;29;20460;-85
2022/04/30 06:10:20;;;;;;;47.37;32.50;;;10.20;99.90;;;;;;4890068;29;20459;-86
2022/04/30 06:12:48;;;;;;;47.60;31.87;;;10.20;99.90;;;;;;4900147;29;21038;-87
2022/04/30 06:15:15;;;;;;;47.20;33.20;;;10.30;99.90;;;;;;4889066;29;20490;-85
2022/04/30 06:17:42;;;;;;;42.77;30.03;;;10.40;99.90;;;;;;4890038;29;20495;-85
2022/04/30 06:20:10;;;;;;;38.17;30.15;;;10.50;99.90;;;;;;4889891;29;20836;-86
2022/04/30 06:22:37;;;;;;;36.40;29.93;;;10.50;99.90;;;;;;4889843;29;20234;-86
2022/04/30 06:25:04;;;;;;;42.37;31.70;;;10.50;99.90;;;;;;4890966;29;20460;-84
2022/04/30 06:27:31;;;;;;;37.03;32.10;;;10.60;99.90;;;;;;4903610;29;20465;-86
2022/04/30 06:29:59;;;;;;;37.77;32.10;;;10.50;99.90;;;;;;4908109;29;20459;-86
2022/04/30 06:32:26;;;;;;;36.37;27.73;;;10.60;99.90;;;;;;4906133;29;20861;-86
2022/04/30 06:34:53;;;;;;;35.47;29.73;;;10.70;99.90;;;;;;4889346;29;20470;-85
2022/04/30 06:37:20;;;;;;;38.13;29.33;;;10.60;99.90;;;;;;4889449;29;20467;-85
2022/04/30 06:39:47;;;;;;;37.20;29.07;;;10.70;99.90;;;;;;4888201;29;20463;-86
2022/04/30 06:42:14;;;;;;;37.60;29.07;;;10.80;99.90;;;;;;4902100;29;20512;-85
2022/04/30 06:44:41;;;;;;;33.50;28.63;;;11.00;99.90;;;;;;4887898;29;20514;-86
2022/04/30 06:47:09;;;;;;;34.03;26.60;;;11.00;99.90;;;;;;4904175;29;20487;-86
2022/04/30 06:49:36;;;;;;;36.47;29.70;;;11.00;99.90;;;;;;4906475;29;20458;-85
2022/04/30 06:52:04;;;;;;;36.77;28.13;;;11.10;99.90;;;;;;4889071;29;20500;-86
2022/04/30 06:57:17;;;;;;;31.67;27.30;;;10.90;99.90;;;;;;4889795;29;20443;-85
2022/04/30 06:59:45;;;;;;;32.17;25.20;;;11.10;99.90;;;;;;4897577;29;20522;-85
2022/04/30 07:02:17;;;;;;;31.63;23.70;;;11.20;99.90;;;;;;4904941;29;20554;-85
2022/04/30 07:04:46;;;;;;;32.77;26.80;;;11.30;99.90;;;;;;4890824;29;20470;-85
2022/04/30 07:07:15;;;;;;;31.53;25.57;;;11.30;99.90;;;;;;4895647;29;20459;-86
2022/04/30 07:09:42;;;;;;;27.50;23.27;;;11.40;99.90;;;;;;4905014;29;20561;-86
2022/04/30 07:12:12;;;;;;;28.90;25.80;;;11.20;99.90;;;;;;4898090;29;20495;-86
2022/04/30 07:14:40;;;;;;;32.23;25.23;;;11.00;99.90;;;;;;4889473;29;20489;-86
2022/04/30 07:17:08;;;;;;;33.00;25.40;;;10.90;99.90;;;;;;4908672;29;20462;-84
2022/04/30 07:19:36;;;;;;;32.67;25.80;;;10.80;99.90;;;;;;4908831;29;20853;-85
2022/04/30 07:22:04;;;;;;;31.77;24.40;;;10.80;99.90;;;;;;4908988;29;20484;-84
2022/04/30 07:24:32;;;;;;;32.80;24.60;;;10.80;99.90;;;;;;4904263;29;20465;-87
2022/04/30 07:26:59;;;;;;;33.00;26.47;;;10.70;99.90;;;;;;4902436;29;20486;-85
2022/04/30 07:29:25;;;;;;;30.97;24.10;;;10.50;99.90;;;;;;4900634;29;20948;-84
2022/04/30 07:31:52;;;;;;;30.37;25.67;;;10.50;99.90;;;;;;4900414;29;20498;-85
2022/04/30 07:34:19;;;;;;;33.00;26.43;;;10.40;99.90;;;;;;4885721;29;20542;-84
2022/04/30 07:36:47;;;;;;;29.90;24.47;;;10.40;99.90;;;;;;4881300;29;20469;-84
2022/04/30 07:39:14;;;;;;;29.83;25.43;;;10.30;99.90;;;;;;4880617;29;20561;-84
2022/04/30 07:46:35;;;;;;;32.47;24.67;;;10.40;99.90;;;;;;4881562;29;20226;-80
2022/04/30 07:49:01;;;;;;;33.27;26.53;;;10.50;99.90;;;;;;4883219;29;20466;-80
2022/04/30 07:51:38;;;;;;;31.93;26.37;;;10.50;99.90;;;;;;4883742;29;20455;-80
2022/04/30 07:54:08;;;;;;;30.17;24.63;;;10.50;99.90;;;;;;4864389;29;20511;-80
2022/04/30 07:56:34;;;;;;;30.93;24.90;;;10.50;99.90;;;;;;4862705;29;20461;-80
2022/04/30 07:59:01;;;;;;;30.40;26.03;;;10.50;99.90;;;;;;4846696;29;20842;-80
2022/04/30 08:01:28;;;;;;;31.70;24.17;;;10.50;99.90;;;;;;4846504;29;20465;-80
2022/04/30 08:03:54;;;;;;;31.70;24.77;;;10.60;99.90;;;;;;4846147;29;20485;-80
2022/04/30 08:06:21;;;;;;;35.17;25.50;;;10.60;99.90;;;;;;4860154;29;20461;-80
2022/04/30 08:08:48;;;;;;;31.43;25.43;;;10.80;99.90;;;;;;4864433;29;20456;-80
2022/04/30 08:11:16;;;;;;;39.27;25.23;;;10.80;99.90;;;;;;4862136;29;20470;-81
2022/04/30 08:13:43;;;;;;;30.13;23.67;;;11.00;99.90;;;;;;4863218;29;20492;-80
2022/04/30 08:16:10;;;;;;;29.40;24.27;;;11.10;99.90;;;;;;4864056;29;20839;-80
2022/04/30 08:18:38;;;;;;;26.17;23.40;;;11.10;99.90;;;;;;4864628;29;20556;-80
2022/04/30 08:21:08;;;;;;;22.57;19.73;;;11.00;99.90;;;;;;4851057;29;20479;-81
2022/04/30 08:23:36;;;;;;;25.03;21.50;;;11.10;99.90;;;;;;4848235;29;20488;-80
2022/04/30 08:26:03;;;;;;;23.67;19.30;;;10.90;99.90;;;;;;4852221;29;20487;-80
2022/04/30 08:28:31;;;;;;;20.70;18.10;;;10.80;99.90;;;;;;4851562;29;20461;-80
2022/04/30 08:30:58;;;;;;;23.20;20.80;;;10.70;99.90;;;;;;4857014;29;20469;-80
2022/04/30 08:33:25;;;;;;;21.10;19.00;;;10.70;99.90;;;;;;4852282;29;20556;-80
2022/04/30 08:35:53;;;;;;;23.97;21.30;;;10.80;99.90;;;;;;4853277;29;20452;-80
2022/04/30 08:38:20;;;;;;;23.23;20.43;;;10.70;99.90;;;;;;4852245;29;20851;-80
2022/04/30 08:40:47;;;;;;;19.90;17.90;;;10.60;99.90;;;;;;4861020;29;20459;-80
2022/04/30 08:43:15;;;;;;;20.07;18.10;;;10.40;99.90;;;;;;4849365;29;20999;-80
2022/04/30 08:45:45;;;;;;;21.10;19.10;;;10.30;99.90;;;;;;4846434;29;20537;-80
2022/04/30 08:48:14;;;;;;;20.53;17.40;;;10.20;99.90;;;;;;4846165;29;20900;-81
2022/04/30 08:50:42;;;;;;;23.10;19.90;;;10.10;99.90;;;;;;4845244;29;20465;-81
2022/04/30 08:53:10;;;;;;;22.70;20.23;;;10.10;99.90;;;;;;4858404;29;21029;-81
2022/04/30 08:55:37;;;;;;;20.27;18.07;;;10.20;99.90;;;;;;4861821;29;20467;-81
2022/04/30 08:58:04;;;;;;;24.50;21.57;;;10.00;99.90;;;;;;4861618;29;20483;-80
2022/04/30 09:00:38;;;;;;;24.17;20.73;;;10.10;99.90;;;;;;4859535;29;20457;-80
2022/04/30 09:03:07;;;;;;;21.50;18.20;;;10.10;99.90;;;;;;4840912;29;20844;-78
2022/04/30 09:05:36;;;;;;;21.77;19.43;;;10.10;99.90;;;;;;4852740;29;20471;-81
2022/04/30 09:08:05;;;;;;;25.03;21.00;;;10.00;99.90;;;;;;4859006;29;20498;-82
2022/04/30 09:10:36;;;;;;;22.33;19.57;;;9.90;99.90;;;;;;4862393;29;20467;-82
2022/04/30 09:13:07;;;;;;;26.07;21.70;;;9.90;99.90;;;;;;4864262;29;20494;-82
2022/04/30 09:15:35;;;;;;;25.30;21.77;;;10.00;99.90;;;;;;4865457;29;20468;-80
2022/04/30 09:18:03;;;;;;;23.93;20.53;;;10.20;99.90;;;;;;4860958;29;20464;-81
2022/04/30 09:20:31;;;;;;;23.33;20.93;;;10.30;99.90;;;;;;4859209;29;20460;-79
2022/04/30 09:22:58;;;;;;;24.20;19.60;;;10.40;99.90;;;;;;4862647;29;20467;-80
2022/04/30 09:25:25;;;;;;;20.43;18.27;;;10.40;99.90;;;;;;4863322;29;20456;-80
2022/04/30 09:27:53;;;;;;;21.30;19.10;;;10.50;99.90;;;;;;4863293;29;20472;-80
2022/04/30 09:30:24;;;;;;;26.17;18.67;;;10.50;99.90;;;;;;4863145;29;21062;-81
2022/04/30 09:33:03;;;;;;;23.40;20.60;;;10.40;99.90;;;;;;4863107;29;21025;-80
2022/04/30 09:38:17;;;;;;;18.70;16.83;;;10.50;99.90;;;;;;4866586;29;20459;-80
2022/04/30 09:40:53;;;;;;;21.80;18.80;;;10.50;99.90;;;;;;4868223;29;20460;-80
2022/04/30 09:43:21;;;;;;;17.67;15.80;;;10.50;99.90;;;;;;4868472;29;20595;-81
2022/04/30 09:45:48;;;;;;;20.00;17.80;;;10.50;99.90;;;;;;4868115;29;20492;-80
2022/04/30 09:53:57;;;;;;;20.53;16.90;;;10.80;99.90;;;;;;4867203;29;20580;-80
2022/04/30 09:56:34;;;;;;;23.00;16.27;;;10.80;99.90;;;;;;4860848;29;20450;-82
2022/04/30 09:59:05;;;;;;;19.07;16.27;;;10.90;99.90;;;;;;4858446;29;20465;-81
2022/04/30 10:01:34;;;;;;;17.23;14.70;;;10.90;99.90;;;;;;4864662;29;20489;-80
2022/04/30 10:04:05;;;;;;;18.87;16.93;;;10.90;99.90;;;;;;4869345;29;20472;-82
2022/04/30 10:06:34;;;;;;;15.87;14.27;;;11.20;99.90;;;;;;4869694;29;20453;-82
2022/04/30 10:09:02;;;;;;;17.57;15.10;;;11.40;99.90;;;;;;4849539;29;20472;-81
2022/04/30 10:11:34;;;;;;;15.10;13.80;;;11.70;99.90;;;;;;4848742;29;20458;-82
2022/04/30 10:14:54;;;;;;;15.57;14.07;;;11.70;99.90;;;;;;4849491;29;21092;-84
2022/04/30 10:17:28;;;;;;;12.57;11.27;;;12.10;99.90;;;;;;4819460;29;20475;-84
2022/04/30 10:20:06;;;;;;;12.30;11.10;;;12.10;99.90;;;;;;4848628;29;20508;-84
2022/04/30 10:25:33;;;;;;;16.50;11.30;;;11.90;99.90;;;;;;4858327;29;20454;-83
2022/04/30 10:28:18;;;;;;;11.67;10.50;;;11.70;99.90;;;;;;4853607;29;20454;-83
2022/04/30 10:30:49;;;;;;;13.13;11.40;;;11.60;99.90;;;;;;4850445;29;20510;-83
2022/04/30 10:33:16;;;;;;;12.30;11.20;;;11.50;99.90;;;;;;4847757;29;20497;-82
2022/04/30 10:35:43;;;;;;;13.03;11.83;;;11.70;99.90;;;;;;4862798;29;20461;-83
2022/04/30 10:38:18;;;;;;;12.03;11.03;;;12.00;99.90;;;;;;4865994;29;20874;-83
2022/04/30 10:40:47;;;;;;;15.17;13.80;;;11.90;99.90;;;;;;4849827;29;20465;-83
2022/04/30 10:43:28;;;;;;;12.47;11.23;;;12.20;99.90;;;;;;4848205;29;20474;-83
2022/04/30 10:45:56;;;;;;;12.10;11.00;;;12.50;99.90;;;;;;4865279;29;20911;-84
2022/04/30 10:48:26;;;;;;;10.77;8.87;;;12.90;99.90;;;;;;4865395;29;20461;-83
2022/04/30 10:51:11;;;;;;;7.70;7.10;;;12.90;99.90;;;;;;4855819;29;20458;-81
2022/04/30 10:53:43;;;;;;;6.73;6.13;;;12.80;99.90;;;;;;4860400;29;20497;-82
2022/04/30 10:56:12;;;;;;;6.07;5.53;;;12.60;99.90;;;;;;4869199;29;20749;-82
2022/04/30 10:58:41;;;;;;;7.07;6.57;;;12.50;99.90;;;;;;4866520;29;20506;-82
2022/04/30 11:01:14;;;;;;;6.30;5.80;;;12.70;99.90;;;;;;4847989;29;20487;-83
2022/04/30 11:06:44;;;;;;;7.23;6.53;;;12.80;99.90;;;;;;4849060;29;20458;-82
2022/04/30 11:09:25;;;;;;;5.40;5.00;;;12.80;99.90;;;;;;4851179;29;21015;-82
2022/04/30 11:11:53;;;;;;;5.60;5.10;;;13.00;99.90;;;;;;4867182;29;20521;-82
2022/04/30 11:14:23;;;;;;;6.30;5.80;;;13.20;99.90;;;;;;4862033;29;20486;-82
2022/04/30 11:16:50;;;;;;;5.77;5.37;;;13.40;99.90;;;;;;4855664;29;20451;-81
2022/04/30 11:19:19;;;;;;;5.40;5.00;;;13.90;99.90;;;;;;4853119;29;20468;-81
2022/04/30 11:21:50;;;;;;;4.60;4.30;;;14.30;99.90;;;;;;4852121;29;20950;-81
2022/04/30 11:24:56;;;;;;;5.03;4.63;;;14.70;99.90;;;;;;4846970;29;20462;-82
2022/04/30 11:27:23;;;;;;;5.80;5.40;;;15.00;99.90;;;;;;4846770;29;20467;-82
2022/04/30 11:29:51;;;;;;;5.47;5.00;;;14.80;99.90;;;;;;4855016;29;20829;-81
2022/04/30 11:32:24;;;;;;;6.20;5.77;;;14.30;99.90;;;;;;4865174;29;20486;-81
2022/04/30 11:35:00;;;;;;;7.37;6.77;;;13.90;99.90;;;;;;4855966;29;20498;-81
2022/04/30 11:37:40;;;;;;;5.87;5.37;;;13.50;99.90;;;;;;4846200;29;20470;-81
2022/04/30 11:40:12;;;;;;;7.10;6.40;;;13.50;99.90;;;;;;4858356;29;20518;-81
2022/04/30 11:42:45;;;;;;;6.83;6.00;;;13.60;99.90;;;;;;4865449;29;20492;-82
2022/04/30 11:45:24;;;;;;;6.77;6.23;;;13.60;99.90;;;;;;4852183;29;20463;-82
2022/04/30 11:47:51;;;;;;;6.67;6.17;;;13.60;99.90;;;;;;4848285;29;20465;-82
2022/04/30 11:50:29;;;;;;;7.67;7.07;;;13.60;99.90;;;;;;4861785;29;20465;-81
2022/04/30 11:52:57;;;;;;;6.93;6.30;;;13.50;99.90;;;;;;4866703;29;20485;-82
2022/04/30 11:55:26;;;;;;;6.37;5.93;;;13.60;99.90;;;;;;4854277;29;20459;-81
2022/04/30 11:57:52;;;;;;;7.13;6.63;;;13.60;99.90;;;;;;4861219;29;20452;-81
2022/04/30 12:00:20;;;;;;;6.90;6.40;;;13.50;99.90;;;;;;4862463;29;20463;-82
2022/04/30 12:02:49;;;;;;;7.13;6.53;;;13.40;99.90;;;;;;4859751;29;20537;-80
2022/04/30 12:05:16;;;;;;;8.47;7.70;;;13.10;99.90;;;;;;4849783;29;20458;-81
2022/04/30 12:07:46;;;;;;;7.80;7.20;;;13.10;99.90;;;;;;4855221;29;20544;-84
2022/04/30 12:10:31;;;;;;;6.93;6.43;;;13.20;99.90;;;;;;4866338;29;20477;-83
2022/04/30 12:13:02;;;;;;;7.10;6.50;;;13.00;99.90;;;;;;4855769;29;20517;-83
2022/04/30 12:15:44;;;;;;;7.60;6.90;;;12.70;99.90;;;;;;4849057;29;20461;-83
2022/04/30 12:27:02;;;;;;;7.17;6.57;;;12.80;99.90;;;;;;4823153;29;20479;-82
2022/04/30 12:29:32;;;;;;;5.27;4.87;;;12.80;99.90;;;;;;4850506;29;20477;-83
2022/04/30 12:32:04;;;;;;;6.70;6.20;;;12.70;99.90;;;;;;4869047;29;20541;-83
2022/04/30 12:34:38;;;;;;;5.27;4.87;;;12.70;99.90;;;;;;4868726;29;20485;-83
2022/04/30 12:37:06;;;;;;;5.10;4.73;;;12.70;99.90;;;;;;4869390;29;20465;-83
2022/04/30 12:39:33;;;;;;;4.33;4.10;;;12.60;99.90;;;;;;4868823;29;20453;-83
2022/04/30 12:42:00;;;;;;;4.77;4.47;;;12.70;99.90;;;;;;4868365;29;20472;-83
2022/04/30 12:44:28;;;;;;;5.30;4.90;;;12.90;99.90;;;;;;4868557;29;20525;-83
2022/04/30 12:46:56;;;;;;;5.00;4.60;;;13.70;99.90;;;;;;4868896;29;20470;-83
2022/04/30 12:49:23;;;;;;;4.30;4.00;;;14.60;99.90;;;;;;4868772;29;20479;-83
2022/04/30 12:51:50;;;;;;;3.57;3.33;;;14.50;99.90;;;;;;4868069;29;20968;-83
2022/04/30 12:54:17;;;;;;;5.67;5.17;;;14.00;99.90;;;;;;4868609;29;20920;-83
2022/04/30 12:56:46;;;;;;;5.57;5.17;;;13.40;99.90;;;;;;4870566;29;20461;-83
2022/04/30 12:59:13;;;;;;;4.90;4.50;;;13.40;99.90;;;;;;4871734;29;20853;-83
2022/04/30 13:01:40;;;;;;;5.93;5.43;;;13.50;99.90;;;;;;4868019;29;20472;-84
2022/04/30 13:04:09;;;;;;;4.90;4.50;;;13.60;99.90;;;;;;4867252;29;20513;-83
2022/04/30 13:06:36;;;;;;;3.90;3.60;;;13.50;99.90;;;;;;4867074;29;20953;-84
2022/04/30 13:14:32;;;;;;;3.77;3.53;;;14.20;99.90;;;;;;4867413;29;20477;-84
2022/04/30 13:17:01;;;;;;;3.97;3.67;;;14.10;99.90;;;;;;4867039;29;20974;-83
2022/04/30 13:19:30;;;;;;;4.50;4.20;;;14.10;99.90;;;;;;4867069;29;20469;-84
2022/04/30 13:21:59;;;;;;;4.50;4.10;;;14.30;99.90;;;;;;4867458;29;20462;-84
2022/04/30 13:24:26;;;;;;;4.77;4.37;;;14.40;99.90;;;;;;4866284;29;20475;-84
2022/04/30 13:26:53;;;;;;;5.10;4.70;;;14.60;99.90;;;;;;4866842;29;20465;-84
2022/04/30 13:29:20;;;;;;;6.63;6.03;;;14.60;99.90;;;;;;4866059;29;20467;-83
2022/04/30 13:31:47;;;;;;;5.80;5.30;;;14.70;99.90;;;;;;4865713;29;20468;-83
2022/04/30 13:34:14;;;;;;;5.77;5.37;;;14.50;99.90;;;;;;4866045;29;20586;-83